LOWW/VIE METAR and TAF weather

Enter ICAO airport designator
Station Type Date Time Source
LOWW METAR 2019/04/25 11:50 UTC NOAA

LOWW 251150Z 12006KT 070V170 CAVOK 25/07 Q1013 BECMG 18010KT


Station Type Date Time Source
LOWW Decoded METAR 2019/04/25 11:50 UTC NOAA

Wien / Schwechat-Flughafen, Austria (LOWW) 48-07N 016-34E 190M
Apr 25, 2019 - 07:50 AM EDT / 2019.04.25 1150 UTC
Wind: from the ESE (120 degrees) at 7 MPH (6 KT) (direction variable):0
Visibility: greater than 7 mile(s):0
Temperature: 77 F (25 C)
Dew Point: 44 F (7 C)
Relative Humidity: 31%
Pressure (altimeter): 29.91 in. Hg (1013 hPa)
ob: LOWW 251150Z 12006KT 070V170 CAVOK 25/07 Q1013 BECMG 18010KT
cycle: 12

Station Type Date Time Source
LOWW TAF 2019/04/25 12:21 UTC NOAA

TAF LOWW 251115Z 2512/2618 16010KT CAVOK TX29/2613Z TN13/2603Z
TEMPO 2512/2520 18018KT
TEMPO 2609/2612 18015G25KT
TEMPO 2612/2618 19020G30KT

Example: see airport list